Time;durP1;ratioP1;P1;durP2;ratioP2;P2;SDS_P1;SDS_P2;PMS_P1;PMS_P2;Temp;Humidity;BMP_temperature;BMP_pressure;BME280_temperature;BME280_humidity;BME280_pressure;Samples;Min_cycle;Max_cycle;Signal;HPM_P1;HPM_P2
2022/12/15 00:38:50;;;;;;;54.58;27.05;;;;;;;3.77;75.62;99065.50;3146141;28;20592;-66
2022/12/15 00:40:22;;;;;;;51.65;25.65;;;;;;;3.77;75.63;99063.78;3145218;28;20063;-67
2022/12/15 00:41:54;;;;;;;54.58;26.70;;;;;;;3.78;75.79;99070.59;3145303;28;20055;-68
2022/12/15 00:43:25;;;;;;;50.00;27.30;;;;;;;3.78;75.79;99068.03;3142492;28;20118;-68
2022/12/15 00:44:57;;;;;;;59.40;27.83;;;;;;;3.79;75.97;99064.56;3145599;28;20052;-68
2022/12/15 00:48:18;;;;;;;46.85;25.27;;;;;;;3.75;75.76;99052.66;3144835;28;20048;-67
2022/12/15 01:21:01;;;;;;;47.45;23.27;;;;;;;3.51;75.71;98995.00;3145350;28;20088;-66
2022/12/15 01:22:33;;;;;;;44.78;22.77;;;;;;;3.69;75.77;99039.13;3145570;28;20083;-67
2022/12/15 01:24:05;;;;;;;44.92;22.75;;;;;;;3.71;75.82;99030.47;3144686;28;20413;-68
2022/12/15 01:25:39;;;;;;;48.55;23.13;;;;;;;3.70;75.73;99031.38;3145725;28;20048;-67
2022/12/15 01:27:11;;;;;;;55.03;24.98;;;;;;;3.71;75.74;99011.63;3145393;28;20386;-66
2022/12/15 01:28:43;;;;;;;46.40;24.02;;;;;;;3.75;75.74;99016.59;3145628;28;20048;-67
2022/12/15 01:30:18;;;;;;;43.30;23.77;;;;;;;2.80;75.45;98885.56;3140814;28;20118;-66
2022/12/15 01:31:50;;;;;;;51.35;24.42;;;;;;;3.66;75.68;99037.47;3143058;28;20073;-68
2022/12/15 01:33:22;;;;;;;48.90;24.58;;;;;;;3.69;75.85;99054.59;3145258;28;20407;-67
2022/12/15 01:34:54;;;;;;;47.10;24.80;;;;;;;3.65;75.88;99051.25;3145127;28;20048;-66
2022/12/15 01:36:27;;;;;;;49.08;24.92;;;;;;;3.63;75.71;99037.56;3144835;28;20051;-67
2022/12/15 01:37:58;;;;;;;48.22;25.70;;;;;;;3.67;75.86;99040.91;3145106;28;20052;-67
2022/12/15 01:40:43;;;;;;;52.88;25.83;;;;;;;3.68;75.86;99047.75;3144106;28;20097;-66
2022/12/15 01:41:22;;;;;;;51.75;26.30;;;;;;;3.65;76.01;99046.94;3145289;28;20469;-67
2022/12/15 01:42:53;;;;;;;53.22;26.35;;;;;;;3.66;76.05;99050.34;3145154;28;20076;-66
2022/12/15 01:44:25;;;;;;;58.55;27.67;;;;;;;3.67;76.06;99058.91;3141699;28;20105;-66
2022/12/15 01:46:01;;;;;;;55.15;26.77;;;;;;;3.67;76.06;99051.19;3144813;28;20076;-67
2022/12/15 01:47:32;;;;;;;61.17;28.33;;;;;;;3.65;76.06;99048.69;3145325;28;20109;-67
2022/12/15 01:49:14;;;;;;;57.42;28.42;;;;;;;3.64;76.20;99047.84;3145263;28;20497;-67
2022/12/15 01:50:50;;;;;;;61.50;30.00;;;;;;;3.62;76.30;99048.78;3145627;28;20106;-66
2022/12/15 01:52:24;;;;;;;54.80;28.05;;;;;;;3.61;76.34;99057.41;3145581;28;20051;-67
2022/12/15 01:54:04;;;;;;;59.58;29.38;;;;;;;3.56;76.33;99041.22;3145385;28;20105;-67
2022/12/15 01:55:37;;;;;;;59.63;30.85;;;;;;;3.55;76.40;99037.81;3145371;28;20052;-68
2022/12/15 01:57:13;;;;;;;;;;;;;;;3.45;76.45;99031.22;3145666;28;20871;-66
2022/12/15 01:58:47;;;;;;;61.92;30.33;;;;;;;3.43;76.57;99040.72;3143790;28;19924;-68
2022/12/15 02:00:18;;;;;;;60.60;29.23;;;;;;;3.24;76.59;99022.38;3145181;28;20102;-68
2022/12/15 02:01:50;;;;;;;58.40;30.63;;;;;;;3.44;76.49;99062.16;3144392;28;20141;-67
2022/12/15 02:03:22;;;;;;;56.47;29.88;;;;;;;3.41;76.55;99058.78;3145066;28;20118;-68
2022/12/15 02:04:56;;;;;;;62.10;31.65;;;;;;;3.41;76.67;99061.38;3144884;28;20386;-68
2022/12/15 02:06:29;;;;;;;59.30;30.50;;;;;;;3.48;76.70;99076.63;3145162;28;20040;-67
2022/12/15 02:08:04;;;;;;;59.80;30.05;;;;;;;3.46;76.72;99079.25;3144382;28;20055;-68
2022/12/15 02:09:36;;;;;;;62.38;31.45;;;;;;;3.44;76.75;99075.88;3144083;28;20049;-68
2022/12/15 02:11:24;;;;;;;68.60;32.45;;;;;;;3.40;76.80;99059.69;3144661;28;20049;-67
2022/12/15 02:13:09;;;;;;;60.28;31.50;;;;;;;3.44;76.74;99093.06;3144499;28;20101;-66
2022/12/15 02:14:59;;;;;;;66.90;32.20;;;;;;;3.42;76.70;99103.38;3135406;28;20048;-65
2022/12/15 02:16:41;;;;;;;61.97;31.10;;;;;;;3.01;77.02;99038.44;3136882;28;20064;-66
2022/12/15 02:18:20;;;;;;;63.70;30.85;;;;;;;3.36;76.89;99095.84;3143029;28;20630;-66
2022/12/15 02:20:31;;;;;;;62.85;31.13;;;;;;;3.39;76.73;99098.31;3144738;28;20048;-65
2022/12/15 02:22:21;;;;;;;64.60;29.48;;;;;;;3.32;77.10;99107.94;3134684;28;20052;-66
2022/12/15 02:24:30;;;;;;;63.00;28.88;;;;;;;3.29;77.03;99113.16;3132122;28;20053;-65
2022/12/15 02:26:28;;;;;;;57.53;29.38;;;;;;;2.96;77.04;99059.16;3128719;28;20591;-65
2022/12/15 02:28:05;;;;;;;58.45;30.05;;;;;;;3.28;77.18;99118.34;3143888;28;20052;-66
2022/12/15 02:30:22;;;;;;;62.45;29.45;;;;;;;3.27;76.94;99117.50;3145048;28;20548;-65
2022/12/15 02:31:58;;;;;;;53.72;27.80;;;;;;;3.25;76.92;99126.16;3116273;28;20071;-65
2022/12/15 02:33:33;;;;;;;58.20;28.55;;;;;;;3.26;76.88;99113.25;3144823;28;20109;-68
2022/12/15 02:35:09;;;;;;;58.45;28.90;;;;;;;3.26;76.88;99108.09;3144855;28;20056;-66
2022/12/15 02:36:44;;;;;;;60.28;29.88;;;;;;;2.75;76.57;99013.41;3144178;28;20510;-66
2022/12/15 02:38:27;;;;;;;61.08;29.63;;;;;;;3.27;76.71;99104.63;3143790;28;20453;-66
2022/12/15 02:39:59;;;;;;;68.45;30.23;;;;;;;3.27;76.57;99088.34;3144666;28;20150;-66
2022/12/15 02:41:35;;;;;;;67.53;31.83;;;;;;;3.22;76.57;99087.63;3144325;28;20048;-66
2022/12/15 02:43:10;;;;;;;66.57;31.02;;;;;;;3.19;76.80;99110.00;3143818;28;20048;-66
2022/12/15 02:44:48;;;;;;;58.50;29.55;;;;;;;3.15;76.70;99121.25;3144520;28;20071;-66
2022/12/15 02:46:30;;;;;;;59.55;30.75;;;;;;;3.18;76.74;99140.91;3144538;28;20551;-67
2022/12/15 02:48:16;;;;;;;61.40;30.23;;;;;;;3.12;76.83;99133.34;3144302;28;20055;-66
2022/12/15 02:50:01;;;;;;;58.20;29.00;;;;;;;3.13;77.00;99137.59;3144399;28;20437;-66
2022/12/15 02:51:48;;;;;;;59.13;29.58;;;;;;;3.04;77.03;99128.38;3144699;28;20059;-67
2022/12/15 02:53:36;;;;;;;58.45;29.25;;;;;;;3.02;77.04;99119.00;3144238;28;20114;-66
2022/12/15 02:55:16;;;;;;;53.90;28.80;;;;;;;3.14;77.17;99123.88;3144509;28;20053;-65
2022/12/15 02:56:57;;;;;;;60.17;29.88;;;;;;;3.12;76.98;99105.03;3144856;28;20044;-67
2022/12/15 02:58:37;;;;;;;58.38;27.27;;;;;;;3.07;76.85;99089.72;3144854;28;20590;-66
2022/12/15 03:00:10;;;;;;;58.90;29.00;;;;;;;3.07;77.05;99109.47;3143698;28;20591;-66
2022/12/15 03:01:49;;;;;;;58.75;26.77;;;;;;;3.11;76.97;99109.34;3144465;28;20498;-66
2022/12/15 03:03:22;;;;;;;57.17;27.30;;;;;;;3.11;76.89;99111.09;3144000;28;20045;-67
2022/12/15 03:04:54;;;;;;;56.65;26.52;;;;;;;3.12;76.84;99105.03;3144467;28;20048;-68
2022/12/15 03:06:27;;;;;;;57.08;26.85;;;;;;;3.11;76.82;99098.22;3144476;28;20045;-68
2022/12/15 03:07:58;;;;;;;54.63;27.27;;;;;;;3.13;76.91;99101.59;3131628;28;20486;-66
2022/12/15 03:09:29;;;;;;;59.67;27.80;;;;;;;3.14;76.77;99105.88;3142787;28;20066;-66
2022/12/15 03:11:02;;;;;;;56.38;26.80;;;;;;;3.10;76.65;99101.66;3144407;28;20098;-67
2022/12/15 03:12:34;;;;;;;57.03;27.00;;;;;;;3.14;76.79;99095.56;3144247;28;20135;-66
2022/12/15 03:14:06;;;;;;;50.78;25.98;;;;;;;3.13;76.76;99105.00;3144175;28;20395;-67
2022/12/15 03:15:36;;;;;;;55.03;26.70;;;;;;;3.08;76.63;99106.03;3143850;28;20458;-67
2022/12/15 03:17:10;;;;;;;48.90;24.73;;;;;;;3.10;76.70;99110.22;3144463;28;20171;-67
2022/12/15 03:18:42;;;;;;;49.97;25.92;;;;;;;3.16;76.60;99116.94;3144093;28;20044;-67
2022/12/15 03:20:14;;;;;;;51.25;25.50;;;;;;;3.08;76.48;99091.44;3144167;28;20131;-67
2022/12/15 03:21:46;;;;;;;52.20;25.23;;;;;;;3.19;76.52;99104.00;3144080;28;20059;-67
2022/12/15 03:23:18;;;;;;;53.15;26.27;;;;;;;3.01;76.52;99099.34;3143548;28;20044;-67
2022/12/15 03:24:50;;;;;;;50.75;25.58;;;;;;;3.14;76.70;99124.72;3143983;28;20462;-68
2022/12/15 03:26:22;;;;;;;56.38;25.33;;;;;;;3.15;76.65;99100.66;3144385;28;20468;-68
2022/12/15 03:27:54;;;;;;;54.10;27.20;;;;;;;3.12;76.61;99100.75;3144280;28;20490;-66
2022/12/15 03:29:26;;;;;;;47.65;25.08;;;;;;;3.18;76.54;99092.03;3144305;28;20106;-68
2022/12/15 03:30:58;;;;;;;45.90;23.88;;;;;;;3.04;76.50;99073.53;3143644;28;20082;-67
2022/12/15 03:32:30;;;;;;;49.30;23.65;;;;;;;3.18;76.48;99087.72;3143991;28;20048;-68
2022/12/15 03:34:02;;;;;;;54.65;23.85;;;;;;;3.21;76.56;99091.94;3144276;28;20135;-67
2022/12/15 03:35:34;;;;;;;48.15;23.85;;;;;;;3.22;76.54;99095.34;3143934;28;20056;-66
2022/12/15 03:37:06;;;;;;;46.58;23.38;;;;;;;3.06;76.42;99075.19;3143491;28;20455;-67
2022/12/15 03:38:38;;;;;;;50.25;23.20;;;;;;;3.23;76.55;99107.34;3140871;28;20044;-68
2022/12/15 03:40:12;;;;;;;47.22;23.02;;;;;;;3.21;76.44;99099.66;3139689;28;20055;-68
2022/12/15 03:41:44;;;;;;;46.38;21.35;;;;;;;3.22;76.46;99093.63;3144131;28;20135;-69
2022/12/15 03:43:16;;;;;;;41.28;21.67;;;;;;;3.18;76.59;99090.28;3144026;28;20082;-68
2022/12/15 03:44:48;;;;;;;46.90;23.30;;;;;;;3.24;76.62;99094.44;3143885;28;20071;-67
2022/12/15 03:46:20;;;;;;;43.30;21.42;;;;;;;3.24;76.60;99091.84;3144140;28;20076;-68
2022/12/15 03:47:53;;;;;;;43.20;21.92;;;;;;;3.23;76.42;99073.91;3144043;28;20052;-68
2022/12/15 03:49:25;;;;;;;44.28;21.67;;;;;;;3.28;76.64;99085.72;3143806;28;20048;-68
2022/12/15 03:50:58;;;;;;;41.97;22.40;;;;;;;3.28;76.62;99066.88;3143901;28;20147;-68
2022/12/15 03:52:29;;;;;;;39.40;21.15;;;;;;;3.30;76.55;99067.69;3143900;28;20044;-68
2022/12/15 03:54:00;;;;;;;37.50;20.70;;;;;;;3.37;76.49;99077.78;3143563;28;20079;-67
2022/12/15 03:55:33;;;;;;;44.53;21.60;;;;;;;3.32;76.39;99061.63;3144174;28;20063;-68
2022/12/15 03:57:05;;;;;;;40.88;19.95;;;;;;;3.40;76.29;99075.13;3144134;28;20049;-67
2022/12/15 03:58:37;;;;;;;42.90;20.65;;;;;;;3.27;76.30;99042.88;3144062;28;20052;-67
2022/12/15 04:00:13;;;;;;;44.25;20.30;;;;;;;3.41;76.26;99055.38;3143506;28;20079;-67
2022/12/15 04:01:47;;;;;;;39.92;20.60;;;;;;;3.41;76.26;99061.38;3131545;28;20053;-67
2022/12/15 04:03:21;;;;;;;42.42;20.73;;;;;;;3.29;76.12;99041.13;3143120;28;20098;-67
2022/12/15 04:04:52;;;;;;;43.63;22.23;;;;;;;3.48;76.15;99068.91;3144043;28;20524;-67
2022/12/15 04:06:24;;;;;;;50.97;23.50;;;;;;;3.09;75.90;98995.34;3143939;28;20094;-67
2022/12/15 04:07:56;;;;;;;45.22;22.17;;;;;;;3.50;75.99;99065.41;3143352;28;20055;-67
2022/12/15 04:09:28;;;;;;;47.50;23.40;;;;;;;3.51;75.96;99061.09;3144058;28;20063;-67
2022/12/15 04:11:00;;;;;;;45.78;21.23;;;;;;;3.53;75.92;99061.91;3143880;28;20052;-67
2022/12/15 04:12:32;;;;;;;48.28;23.80;;;;;;;3.51;75.92;99068.81;3143958;28;20053;-68
2022/12/15 04:14:04;;;;;;;45.95;21.92;;;;;;;3.56;75.98;99064.41;3133224;28;20114;-67
2022/12/15 04:15:38;;;;;;;44.65;22.33;;;;;;;3.54;75.88;99048.13;3144193;28;20063;-67
2022/12/15 04:17:09;;;;;;;44.63;22.05;;;;;;;3.07;75.72;98983.41;3143661;28;20547;-66
2022/12/15 04:18:42;;;;;;;45.25;21.90;;;;;;;3.45;75.91;99038.13;3144107;28;20414;-66
2022/12/15 04:20:13;;;;;;;44.25;22.38;;;;;;;3.56;75.87;99046.38;3143182;28;20101;-66
2022/12/15 04:21:45;;;;;;;42.53;21.35;;;;;;;3.23;75.70;98997.56;3143451;28;20052;-66
2022/12/15 04:23:17;;;;;;;44.13;21.63;;;;;;;3.65;75.62;99056.41;3138822;28;20059;-65
2022/12/15 05:32:32;;;;;;;53.28;23.10;;;;;;;3.75;76.04;99105.91;3145640;28;20048;-68
2022/12/15 05:34:04;;;;;;;49.13;23.48;;;;;;;3.78;76.21;99111.81;3145573;28;20049;-69
2022/12/15 05:35:36;;;;;;;50.70;24.35;;;;;;;3.80;76.14;99120.34;3144881;28;20462;-69
2022/12/15 05:37:08;;;;;;;49.97;24.45;;;;;;;3.82;76.43;99133.19;3145659;28;20437;-69
2022/12/15 05:38:40;;;;;;;50.72;25.05;;;;;;;3.84;76.22;99124.50;3145771;28;20795;-70
2022/12/15 05:40:12;;;;;;;48.55;24.15;;;;;;;3.70;76.29;99098.31;3144735;28;20063;-70
2022/12/15 05:41:44;;;;;;;48.88;23.30;;;;;;;3.41;76.06;99056.22;3145649;28;20052;-70
2022/12/15 05:43:16;;;;;;;47.60;24.70;;;;;;;3.86;76.19;99125.31;3144963;28;20048;-70
2022/12/15 05:44:48;;;;;;;47.22;23.45;;;;;;;3.87;76.27;99136.44;3136998;28;20422;-70
2022/12/15 05:46:20;;;;;;;52.35;24.20;;;;;;;3.81;76.18;99146.94;3145336;28;20052;-70
2022/12/15 05:47:52;;;;;;;46.58;23.75;;;;;;;3.88;76.33;99161.34;3145303;28;20056;-71
2022/12/15 05:49:24;;;;;;;54.28;25.30;;;;;;;3.87;76.41;99155.34;3145455;28;20454;-70
2022/12/15 05:50:56;;;;;;;52.33;24.45;;;;;;;3.80;76.24;99140.94;3144616;28;20212;-69
2022/12/15 05:52:28;;;;;;;50.65;24.60;;;;;;;3.88;76.28;99139.00;3145773;28;20583;-69
2022/12/15 05:54:01;;;;;;;52.15;23.50;;;;;;;3.90;76.28;99143.25;3145233;28;20117;-70
2022/12/15 05:55:33;;;;;;;47.97;23.85;;;;;;;3.90;76.35;99148.41;3145958;28;20118;-69
2022/12/15 05:57:05;;;;;;;45.97;23.85;;;;;;;3.84;76.28;99132.22;3145717;28;20101;-69
2022/12/15 05:58:37;;;;;;;50.47;25.70;;;;;;;3.91;76.37;99147.53;3145512;28;20071;-69
2022/12/15 06:00:10;;;;;;;52.28;25.23;;;;;;;3.90;76.46;99148.41;3145719;28;20060;-70
2022/12/15 06:01:42;;;;;;;53.65;24.30;;;;;;;3.93;76.50;99161.19;3133236;28;20049;-69
2022/12/15 06:03:14;;;;;;;50.47;24.52;;;;;;;3.89;76.54;99157.88;3144004;28;20139;-69
2022/12/15 06:04:46;;;;;;;47.95;23.15;;;;;;;3.91;76.46;99165.56;3145678;28;20128;-68
2022/12/15 06:06:18;;;;;;;46.80;23.65;;;;;;;3.58;76.44;99122.69;3143898;28;20072;-69
2022/12/15 06:07:50;;;;;;;44.05;21.70;;;;;;;3.97;76.47;99191.16;3141879;28;20044;-68
2022/12/15 06:09:23;;;;;;;45.58;22.30;;;;;;;3.91;76.52;99178.44;3144916;28;20060;-69
2022/12/15 06:10:55;;;;;;;51.55;23.40;;;;;;;3.96;76.48;99172.25;3145231;28;20056;-71
2022/12/15 06:12:28;;;;;;;49.08;23.35;;;;;;;3.96;76.52;99166.25;3144767;28;20150;-71
2022/12/15 06:14:00;;;;;;;50.70;24.48;;;;;;;3.93;76.55;99163.78;3144917;28;20053;-70
2022/12/15 06:15:32;;;;;;;54.47;24.48;;;;;;;3.97;76.57;99158.50;3145100;28;20056;-70
2022/12/15 06:17:03;;;;;;;54.28;24.52;;;;;;;3.98;76.55;99167.91;3144903;28;20098;-67
2022/12/15 06:18:37;;;;;;;62.33;28.15;;;;;;;3.99;76.64;99168.75;3145328;28;20517;-68
2022/12/15 06:20:10;;;;;;;58.58;26.67;;;;;;;4.00;76.59;99171.31;3144528;28;20041;-67
2022/12/15 06:21:42;;;;;;;60.15;26.45;;;;;;;4.00;76.79;99168.72;3144231;28;20490;-69
2022/12/15 06:23:14;;;;;;;50.20;24.80;;;;;;;4.01;76.83;99174.72;3144412;28;20160;-67
2022/12/15 06:24:47;;;;;;;54.97;23.95;;;;;;;4.06;76.82;99181.44;3145001;28;20056;-68
2022/12/15 06:26:21;;;;;;;47.47;23.98;;;;;;;4.07;76.83;99182.25;3144984;28;20080;-68
2022/12/15 06:27:53;;;;;;;48.53;23.38;;;;;;;4.09;76.78;99188.22;3144202;28;20543;-68
2022/12/15 06:29:25;;;;;;;54.35;23.00;;;;;;;4.10;76.74;99187.31;3144300;28;20128;-67
2022/12/15 06:31:02;;;;;;;48.20;22.48;;;;;;;4.10;76.87;99185.59;3143300;28;20109;-70
2022/12/15 06:32:35;;;;;;;47.45;21.85;;;;;;;4.07;76.85;99188.25;3143493;28;20055;-68
2022/12/15 06:34:09;;;;;;;50.57;22.33;;;;;;;4.13;76.79;99192.41;3143380;28;20051;-67
2022/12/15 06:35:41;;;;;;;44.78;21.90;;;;;;;4.15;76.78;99203.50;3142530;28;20421;-69
2022/12/15 06:37:13;;;;;;;44.30;22.08;;;;;;;4.16;76.76;99202.63;3143828;28;20052;-69
2022/12/15 06:38:45;;;;;;;46.75;22.35;;;;;;;4.14;76.75;99191.53;3143541;28;20137;-69
2022/12/15 06:40:19;;;;;;;50.63;22.15;;;;;;;4.18;76.79;99195.69;3144584;28;20105;-70
2022/12/15 06:41:51;;;;;;;42.10;20.45;;;;;;;4.14;76.58;99183.78;3144134;28;20378;-69
2022/12/15 06:43:22;;;;;;;51.65;22.45;;;;;;;4.18;76.75;99192.28;3144485;28;20074;-67
2022/12/15 06:44:54;;;;;;;48.53;22.17;;;;;;;3.84;76.79;99141.69;3144725;28;20139;-68
2022/12/15 06:46:28;;;;;;;44.88;21.10;;;;;;;4.23;76.82;99191.25;3144725;28;20102;-67
2022/12/15 06:48:00;;;;;;;51.40;21.55;;;;;;;4.31;76.89;99206.47;3144829;28;20062;-67
2022/12/15 06:49:32;;;;;;;52.17;22.60;;;;;;;4.33;77.00;99200.41;3133569;28;20052;-66
2022/12/15 06:51:05;;;;;;;50.50;22.60;;;;;;;3.81;76.92;99105.72;3140260;28;20462;-68
2022/12/15 06:52:37;;;;;;;48.47;22.02;;;;;;;4.51;76.94;99208.47;3144612;28;20441;-67
2022/12/15 06:54:09;;;;;;;46.75;21.25;;;;;;;4.13;76.93;99125.41;3144231;28;20382;-68
2022/12/15 06:55:43;;;;;;;51.45;23.50;;;;;;;4.77;76.90;99210.28;3144694;28;20131;-65
2022/12/15 06:57:15;;;;;;;41.47;19.85;;;;;;;4.81;76.56;99200.69;3143445;28;20564;-67
2022/12/15 06:58:48;;;;;;;47.78;20.92;;;;;;;4.82;76.40;99210.94;3144529;28;20105;-66
2022/12/15 07:00:20;;;;;;;45.03;19.50;;;;;;;4.44;76.29;99152.84;3136139;28;20480;-66
2022/12/15 07:01:52;;;;;;;43.90;20.38;;;;;;;4.79;76.16;99206.75;3131808;28;20049;-67
2022/12/15 07:03:24;;;;;;;45.10;19.65;;;;;;;4.83;76.11;99202.34;3131607;28;20483;-67
2022/12/15 07:04:56;;;;;;;44.70;19.65;;;;;;;4.84;76.01;99204.00;3131372;28;20049;-67
2022/12/15 07:06:33;;;;;;;39.35;19.50;;;;;;;4.86;75.97;99206.56;3132022;28;20053;-68
2022/12/15 07:08:05;;;;;;;45.40;20.45;;;;;;;4.86;75.91;99193.66;3135207;28;20051;-67
2022/12/15 07:09:37;;;;;;;39.78;19.33;;;;;;;4.94;75.85;99201.97;3143656;28;20049;-67
2022/12/15 07:11:12;;;;;;;40.08;19.02;;;;;;;4.95;75.77;99206.28;3144345;28;20464;-66
2022/12/15 07:12:44;;;;;;;41.17;19.38;;;;;;;4.93;75.68;99198.56;3143691;28;20098;-66
2022/12/15 07:14:16;;;;;;;43.78;20.80;;;;;;;4.96;75.76;99184.72;3143664;28;20056;-67
2022/12/15 07:15:48;;;;;;;44.58;19.80;;;;;;;4.97;75.63;99171.78;3130794;28;20110;-67
2022/12/15 07:17:21;;;;;;;42.20;18.95;;;;;;;4.99;75.64;99164.81;3141818;28;20731;-67
2022/12/15 07:18:52;;;;;;;46.95;22.10;;;;;;;5.02;75.82;99167.31;3143847;28;20048;-68
2022/12/15 07:20:25;;;;;;;47.10;20.17;;;;;;;4.95;75.81;99175.31;3143524;28;20449;-67
2022/12/15 07:21:58;;;;;;;46.83;20.52;;;;;;;5.09;75.77;99219.59;3143287;28;20143;-66
2022/12/15 07:23:30;;;;;;;52.28;22.63;;;;;;;5.17;75.86;99230.47;3142991;28;20067;-67
2022/12/15 07:25:02;;;;;;;71.00;30.85;;;;;;;5.22;75.91;99220.84;3144360;28;20052;-67
2022/12/15 07:26:36;;;;;;;76.18;33.75;;;;;;;5.30;76.02;99218.03;3143603;28;20052;-68
2022/12/15 07:28:08;;;;;;;67.10;30.83;;;;;;;5.50;75.95;99221.69;3144073;28;20102;-68
2022/12/15 07:29:41;;;;;;;69.82;31.95;;;;;;;5.77;75.77;99227.63;3143470;28;20049;-66
2022/12/15 07:31:14;;;;;;;48.90;22.87;;;;;;;6.17;75.30;99234.88;3144427;28;20701;-69
2022/12/15 07:32:45;;;;;;;45.25;20.60;;;;;;;6.56;74.44;99231.69;3144164;28;20049;-70
2022/12/15 07:34:18;;;;;;;40.33;19.75;;;;;;;7.04;73.68;99239.31;3143844;28;20111;-66
2022/12/15 07:35:54;;;;;;;42.17;19.20;;;;;;;6.69;72.26;99107.91;3143767;28;20614;-67
2022/12/15 07:37:26;;;;;;;45.83;18.88;;;;;;;7.81;71.10;99227.53;3143945;28;20044;-65
2022/12/15 07:39:00;;;;;;;43.30;17.48;;;;;;;8.20;69.87;99228.38;3143102;28;20056;-66
2022/12/15 07:40:31;;;;;;;38.85;17.48;;;;;;;8.35;69.18;99202.66;3141942;28;20580;-64
2022/12/15 07:42:05;;;;;;;36.35;17.73;;;;;;;8.67;68.48;99232.38;3141586;28;20045;-68
2022/12/15 07:43:37;;;;;;;;;;;;;;;8.89;68.38;99238.22;3143017;28;20044;-65
2022/12/15 07:45:10;;;;;;;35.00;16.48;;;;;;;9.03;67.70;99252.31;3141508;28;19927;-65
2022/12/15 07:46:45;;;;;;;33.88;17.48;;;;;;;9.22;67.33;99265.25;3142005;28;20155;-66
2022/12/15 07:48:17;;;;;;;42.28;18.13;;;;;;;9.39;66.62;99246.25;3142137;28;20453;-65
2022/12/15 07:49:49;;;;;;;41.25;18.38;;;;;;;9.21;65.55;99202.06;3132726;28;20059;-67
2022/12/15 07:51:22;;;;;;;36.88;16.65;;;;;;;9.65;65.37;99248.41;3143466;28;20048;-66
2022/12/15 07:52:53;;;;;;;34.40;16.92;;;;;;;9.77;64.77;99229.59;3144220;28;20052;-65
2022/12/15 07:54:28;;;;;;;36.70;17.83;;;;;;;9.79;63.95;99185.31;3144476;28;20118;-66
2022/12/15 07:56:00;;;;;;;38.42;17.83;;;;;;;10.45;63.40;99241.72;3140491;28;20048;-66
2022/12/15 07:57:34;;;;;;;38.35;17.70;;;;;;;10.66;61.93;99237.94;3131550;28;20103;-64
2022/12/15 07:59:07;;;;;;;35.00;17.55;;;;;;;10.80;61.37;99205.09;3133814;28;20064;-65
2022/12/15 08:00:38;;;;;;;40.25;17.40;;;;;;;11.22;60.95;99216.63;3142808;28;20087;-66
2022/12/15 08:02:11;;;;;;;37.97;16.88;;;;;;;11.52;60.27;99230.50;3140762;28;20053;-63
2022/12/15 08:03:43;;;;;;;35.10;16.55;;;;;;;11.78;59.71;99249.00;3142001;28;20139;-66
2022/12/15 08:05:15;;;;;;;35.00;16.23;;;;;;;12.06;59.01;99235.19;3143476;28;20060;-67
2022/12/15 08:06:47;;;;;;;33.58;14.52;;;;;;;12.33;57.92;99217.00;3142155;28;20138;-66
2022/12/15 08:08:19;;;;;;;32.53;15.52;;;;;;;12.50;56.92;99229.84;3142691;28;20049;-65
2022/12/15 08:09:52;;;;;;;33.67;15.68;;;;;;;12.77;56.99;99229.06;3140692;28;20575;-64
2022/12/15 08:11:24;;;;;;;32.28;15.25;;;;;;;13.20;56.55;99240.22;3142007;28;20055;-64
2022/12/15 08:12:58;;;;;;;30.65;14.68;;;;;;;13.44;55.56;99234.34;3142116;28;20053;-65
2022/12/15 08:14:31;;;;;;;31.40;15.32;;;;;;;13.62;54.75;99224.44;3141909;28;20452;-66
2022/12/15 08:16:03;;;;;;;32.00;14.88;;;;;;;13.89;54.11;99237.44;3138704;28;20068;-69
2022/12/15 08:17:35;;;;;;;28.45;14.38;;;;;;;14.17;53.72;99243.41;3143588;28;20091;-69
2022/12/15 08:19:09;;;;;;;26.85;13.52;;;;;;;14.39;53.00;99234.91;3140747;28;20155;-69
2022/12/15 08:20:41;;;;;;;27.67;14.40;;;;;;;14.63;52.75;99238.47;3142355;28;20151;-69
2022/12/15 08:22:14;;;;;;;29.52;15.07;;;;;;;14.93;52.20;99231.97;3141642;28;20139;-68
2022/12/15 08:23:46;;;;;;;28.38;14.20;;;;;;;15.17;51.44;99231.97;3142895;28;20079;-69
2022/12/15 08:25:18;;;;;;;24.52;13.05;;;;;;;15.35;50.82;99233.25;3142324;28;20106;-67
2022/12/15 08:26:50;;;;;;;24.15;12.48;;;;;;;15.46;50.01;99224.56;3142368;28;20459;-66
2022/12/15 08:28:25;;;;;;;28.10;14.23;;;;;;;15.49;49.62;99229.59;3138130;28;20135;-66
2022/12/15 08:29:57;;;;;;;31.75;14.52;;;;;;;15.40;48.95;99232.91;3142330;28;20052;-66
2022/12/15 08:31:30;;;;;;;31.33;14.88;;;;;;;15.44;49.08;99239.63;3142839;28;20048;-67
2022/12/15 08:33:03;;;;;;;33.80;15.02;;;;;;;15.53;49.21;99240.69;3137790;28;20041;-67
2022/12/15 08:34:48;;;;;;;;;;;;;;;;;;;;;
2022/12/15 08:36:20;;;;;;;33.22;15.77;;;;;;;15.90;48.86;99239.63;3141987;28;20052;-67
2022/12/15 08:37:52;;;;;;;27.90;13.65;;;;;;;16.04;48.23;99233.34;3142251;28;20052;-66
2022/12/15 08:41:22;;;;;;;25.95;11.75;;;;;;;16.23;47.01;99248.50;3100650;28;20074;-66
2022/12/15 08:42:53;;;;;;;24.10;11.75;;;;;;;16.28;47.05;99246.38;3143005;28;20114;-66
2022/12/15 08:44:27;;;;;;;23.63;11.95;;;;;;;16.43;46.80;99240.88;3146487;28;20052;-67
2022/12/15 08:45:59;;;;;;;;;;;;;;;16.62;47.27;99243.72;3145366;28;20048;-67
2022/12/15 08:47:31;;;;;;;18.35;9.68;;;;;;;16.76;46.62;99255.81;3144844;28;19925;-67
2022/12/15 08:49:04;;;;;;;18.88;10.63;;;;;;;16.83;45.83;99246.50;3145199;28;20048;-65
2022/12/15 08:50:36;;;;;;;16.73;9.30;;;;;;;16.91;45.78;99259.84;3146006;28;20044;-66
2022/12/15 08:52:08;;;;;;;20.27;10.27;;;;;;;16.92;45.51;99247.50;3144189;28;20048;-68
2022/12/15 08:53:40;;;;;;;17.85;9.38;;;;;;;17.03;45.15;99236.97;3143893;28;20103;-66
2022/12/15 08:55:11;;;;;;;18.50;10.18;;;;;;;17.25;44.68;99247.44;3145633;28;20078;-66
2022/12/15 08:56:43;;;;;;;21.42;10.15;;;;;;;17.36;44.77;99245.72;3144553;28;20044;-65
2022/12/15 08:58:15;;;;;;;17.90;9.77;;;;;;;17.38;44.10;99249.06;3143906;28;20048;-65
2022/12/15 08:59:49;;;;;;;17.77;9.82;;;;;;;17.41;43.92;99257.53;3143208;28;20071;-66
2022/12/15 09:01:23;;;;;;;16.50;9.60;;;;;;;17.46;43.96;99244.00;3145400;28;20078;-67
2022/12/15 09:02:55;;;;;;;18.15;9.73;;;;;;;17.47;43.54;99230.69;3143694;28;20360;-73
2022/12/15 09:04:26;;;;;;;16.52;9.60;;;;;;;17.52;43.25;99232.97;3144879;28;20551;-71
2022/12/15 09:06:02;;;;;;;17.75;9.70;;;;;;;17.52;43.01;99240.88;3144373;28;20133;-73
2022/12/15 09:07:34;;;;;;;15.77;9.07;;;;;;;17.34;42.88;99229.22;3140205;28;20402;-68
2022/12/15 09:09:08;;;;;;;16.65;9.13;;;;;;;17.23;42.51;99240.63;3144250;28;20090;-71
2022/12/15 09:10:41;;;;;;;15.35;9.20;;;;;;;17.13;43.04;99237.91;3141294;28;20584;-71
2022/12/15 09:12:13;;;;;;;18.55;9.73;;;;;;;17.13;42.84;99223.94;3141384;28;20048;-68
2022/12/15 09:13:45;;;;;;;15.57;8.93;;;;;;;17.00;42.98;99230.16;3143592;28;20045;-69
2022/12/15 09:15:19;;;;;;;17.45;9.55;;;;;;;16.87;43.13;99215.50;3145785;28;20084;-70
2022/12/15 09:16:51;;;;;;;29.83;18.02;;;;;;;16.91;43.38;99212.50;3143824;28;20052;-71
2022/12/15 09:18:23;;;;;;;19.95;11.52;;;;;;;17.10;43.20;99248.69;3143165;28;20140;-74
2022/12/15 09:19:55;;;;;;;19.25;10.35;;;;;;;17.13;43.18;99244.97;3145261;28;20110;-67
2022/12/15 09:21:30;;;;;;;16.10;9.63;;;;;;;17.20;43.13;99239.06;3144475;28;20432;-70
2022/12/15 09:23:02;;;;;;;20.02;10.25;;;;;;;17.17;42.84;99241.97;3143483;28;20044;-73
2022/12/15 09:24:34;;;;;;;16.08;9.05;;;;;;;17.23;43.00;99235.34;3146258;28;20048;-75
2022/12/15 09:26:08;;;;;;;17.08;8.60;;;;;;;17.35;42.70;99241.41;3143436;28;20102;-77
2022/12/15 09:27:40;;;;;;;13.38;7.72;;;;;;;17.34;42.76;99226.59;3143247;28;20053;-74
2022/12/15 09:29:13;;;;;;;13.20;7.68;;;;;;;17.43;42.01;99239.00;3143993;28;20074;-77
2022/12/15 09:30:46;;;;;;;15.50;8.02;;;;;;;17.38;42.24;99238.53;3144671;28;20151;-70
2022/12/15 09:32:18;;;;;;;16.83;8.65;;;;;;;17.29;42.22;99245.38;3145006;28;20538;-68
2022/12/15 09:33:52;;;;;;;14.68;8.68;;;;;;;17.23;42.38;99230.94;3144131;28;20232;-71
2022/12/15 09:35:26;;;;;;;14.18;8.70;;;;;;;17.17;42.08;99225.34;3144735;28;20063;-71
2022/12/15 09:36:58;;;;;;;14.57;8.70;;;;;;;16.77;41.94;99210.13;3134044;28;20098;-73
2022/12/15 09:38:30;;;;;;;14.18;8.85;;;;;;;16.45;42.36;99224.03;3144986;28;20079;-74